sensor_id;sensor_type;location;lat;lon;timestamp;temperature;humidity
11474;DHT22;5793;52.238;13.438;2023-02-01T00:00:06;4.40;99.90
11474;DHT22;5793;52.238;13.438;2023-02-01T00:02:34;4.30;99.90
11474;DHT22;5793;52.238;13.438;2023-02-01T00:05:03;4.30;99.90
11474;DHT22;5793;52.238;13.438;2023-02-01T00:07:32;4.40;99.90
11474;DHT22;5793;52.238;13.438;2023-02-01T00:09:59;4.30;99.90
11474;DHT22;5793;52.238;13.438;2023-02-01T00:12:27;4.20;99.90
11474;DHT22;5793;52.238;13.438;2023-02-01T00:14:55;4.20;99.90
11474;DHT22;5793;52.238;13.438;2023-02-01T00:17:23;4.20;99.90
11474;DHT22;5793;52.238;13.438;2023-02-01T00:19:51;4.10;99.90
11474;DHT22;5793;52.238;13.438;2023-02-01T00:22:19;4.10;99.90
11474;DHT22;5793;52.238;13.438;2023-02-01T00:24:48;4.20;99.90
11474;DHT22;5793;52.238;13.438;2023-02-01T00:27:15;4.20;99.90
11474;DHT22;5793;52.238;13.438;2023-02-01T00:29:46;4.30;99.90
11474;DHT22;5793;52.238;13.438;2023-02-01T00:32:14;4.40;99.90
11474;DHT22;5793;52.238;13.438;2023-02-01T00:34:42;4.50;99.90
11474;DHT22;5793;52.238;13.438;2023-02-01T00:37:10;4.50;99.90
11474;DHT22;5793;52.238;13.438;2023-02-01T00:39:37;4.50;99.90
11474;DHT22;5793;52.238;13.438;2023-02-01T00:42:06;4.50;99.90
11474;DHT22;5793;52.238;13.438;2023-02-01T00:44:34;4.40;99.90
11474;DHT22;5793;52.238;13.438;2023-02-01T00:47:02;4.40;99.90
11474;DHT22;5793;52.238;13.438;2023-02-01T00:49:30;4.40;99.90
11474;DHT22;5793;52.238;13.438;2023-02-01T00:51:58;4.50;99.90
11474;DHT22;5793;52.238;13.438;2023-02-01T00:54:25;4.60;99.90
11474;DHT22;5793;52.238;13.438;2023-02-01T00:56:53;4.70;99.90
11474;DHT22;5793;52.238;13.438;2023-02-01T00:59:22;4.70;99.90
11474;DHT22;5793;52.238;13.438;2023-02-01T01:01:50;4.80;99.90
11474;DHT22;5793;52.238;13.438;2023-02-01T01:04:18;4.80;99.90
11474;DHT22;5793;52.238;13.438;2023-02-01T01:06:45;4.90;99.90
11474;DHT22;5793;52.238;13.438;2023-02-01T01:09:13;4.80;99.90
11474;DHT22;5793;52.238;13.438;2023-02-01T01:11:41;4.80;99.90
11474;DHT22;5793;52.238;13.438;2023-02-01T01:14:09;4.70;99.90
11474;DHT22;5793;52.238;13.438;2023-02-01T01:16:38;4.70;99.90
11474;DHT22;5793;52.238;13.438;2023-02-01T01:19:06;4.50;99.90
11474;DHT22;5793;52.238;13.438;2023-02-01T01:21:34;4.50;99.90
11474;DHT22;5793;52.238;13.438;2023-02-01T01:24:02;4.40;99.90
11474;DHT22;5793;52.238;13.438;2023-02-01T01:26:30;4.50;99.90
11474;DHT22;5793;52.238;13.438;2023-02-01T01:28:59;4.40;99.90
11474;DHT22;5793;52.238;13.438;2023-02-01T01:31:27;4.40;99.90
11474;DHT22;5793;52.238;13.438;2023-02-01T01:33:58;4.40;99.90
11474;DHT22;5793;52.238;13.438;2023-02-01T01:36:27;4.40;99.90
11474;DHT22;5793;52.238;13.438;2023-02-01T01:38:55;4.40;99.90
11474;DHT22;5793;52.238;13.438;2023-02-01T01:41:25;4.40;99.90
11474;DHT22;5793;52.238;13.438;2023-02-01T01:43:55;4.40;99.90
11474;DHT22;5793;52.238;13.438;2023-02-01T01:46:25;4.30;99.90
11474;DHT22;5793;52.238;13.438;2023-02-01T01:48:59;4.30;99.90
11474;DHT22;5793;52.238;13.438;2023-02-01T01:51:29;4.30;99.90
11474;DHT22;5793;52.238;13.438;2023-02-01T01:54:02;4.30;99.90
11474;DHT22;5793;52.238;13.438;2023-02-01T01:56:33;4.30;99.90
11474;DHT22;5793;52.238;13.438;2023-02-01T01:59:02;4.30;99.90
11474;DHT22;5793;52.238;13.438;2023-02-01T02:01:34;4.30;99.90
11474;DHT22;5793;52.238;13.438;2023-02-01T02:04:04;4.30;99.90
11474;DHT22;5793;52.238;13.438;2023-02-01T02:06:40;4.20;99.90
11474;DHT22;5793;52.238;13.438;2023-02-01T02:09:13;4.20;99.90
11474;DHT22;5793;52.238;13.438;2023-02-01T02:11:40;4.20;99.90
11474;DHT22;5793;52.238;13.438;2023-02-01T02:14:11;4.30;99.90
11474;DHT22;5793;52.238;13.438;2023-02-01T02:16:57;4.30;99.90
11474;DHT22;5793;52.238;13.438;2023-02-01T02:19:48;4.30;99.90
11474;DHT22;5793;52.238;13.438;2023-02-01T02:22:46;4.30;99.90
11474;DHT22;5793;52.238;13.438;2023-02-01T02:25:33;4.30;99.90
11474;DHT22;5793;52.238;13.438;2023-02-01T02:28:22;4.20;99.90
11474;DHT22;5793;52.238;13.438;2023-02-01T02:31:11;4.20;99.90
11474;DHT22;5793;52.238;13.438;2023-02-01T02:33:48;4.20;99.90
11474;DHT22;5793;52.238;13.438;2023-02-01T02:36:27;4.20;99.90
11474;DHT22;5793;52.238;13.438;2023-02-01T02:39:05;4.10;99.90
11474;DHT22;5793;52.238;13.438;2023-02-01T02:41:41;4.20;99.90
11474;DHT22;5793;52.238;13.438;2023-02-01T02:44:34;4.20;99.90
11474;DHT22;5793;52.238;13.438;2023-02-01T02:47:24;4.20;99.90
11474;DHT22;5793;52.238;13.438;2023-02-01T02:50:01;4.30;99.90
11474;DHT22;5793;52.238;13.438;2023-02-01T02:52:53;4.30;99.90
11474;DHT22;5793;52.238;13.438;2023-02-01T02:55:42;4.30;99.90
11474;DHT22;5793;52.238;13.438;2023-02-01T02:58:11;4.30;99.90
11474;DHT22;5793;52.238;13.438;2023-02-01T03:00:57;4.40;99.90
11474;DHT22;5793;52.238;13.438;2023-02-01T03:03:43;4.50;99.90
11474;DHT22;5793;52.238;13.438;2023-02-01T03:06:37;4.60;99.90
11474;DHT22;5793;52.238;13.438;2023-02-01T03:09:10;4.50;99.90
11474;DHT22;5793;52.238;13.438;2023-02-01T03:11:41;4.50;99.90
11474;DHT22;5793;52.238;13.438;2023-02-01T03:14:29;4.60;99.90
11474;DHT22;5793;52.238;13.438;2023-02-01T03:17:01;4.50;99.90
11474;DHT22;5793;52.238;13.438;2023-02-01T03:19:34;4.50;99.90
11474;DHT22;5793;52.238;13.438;2023-02-01T03:22:06;4.50;99.90
11474;DHT22;5793;52.238;13.438;2023-02-01T03:24:39;4.50;99.90
11474;DHT22;5793;52.238;13.438;2023-02-01T03:27:11;4.50;99.90
11474;DHT22;5793;52.238;13.438;2023-02-01T03:29:45;4.40;99.90
11474;DHT22;5793;52.238;13.438;2023-02-01T03:32:13;4.40;99.90
11474;DHT22;5793;52.238;13.438;2023-02-01T03:34:42;4.40;99.90
11474;DHT22;5793;52.238;13.438;2023-02-01T03:37:15;4.40;99.90
11474;DHT22;5793;52.238;13.438;2023-02-01T03:39:47;4.50;99.90
11474;DHT22;5793;52.238;13.438;2023-02-01T03:42:19;4.50;99.90
11474;DHT22;5793;52.238;13.438;2023-02-01T03:44:51;4.60;99.90
11474;DHT22;5793;52.238;13.438;2023-02-01T03:47:23;4.60;99.90
11474;DHT22;5793;52.238;13.438;2023-02-01T03:49:54;4.60;99.90
11474;DHT22;5793;52.238;13.438;2023-02-01T03:52:27;4.60;99.90
11474;DHT22;5793;52.238;13.438;2023-02-01T03:54:56;4.60;99.90
11474;DHT22;5793;52.238;13.438;2023-02-01T03:57:27;4.60;99.90
11474;DHT22;5793;52.238;13.438;2023-02-01T04:00:05;4.60;99.90
11474;DHT22;5793;52.238;13.438;2023-02-01T04:02:34;4.60;99.90
11474;DHT22;5793;52.238;13.438;2023-02-01T04:05:02;4.70;99.90
11474;DHT22;5793;52.238;13.438;2023-02-01T04:07:31;4.70;99.90
11474;DHT22;5793;52.238;13.438;2023-02-01T04:09:59;4.70;99.90
11474;DHT22;5793;52.238;13.438;2023-02-01T04:12:27;4.70;99.90
11474;DHT22;5793;52.238;13.438;2023-02-01T04:14:55;4.80;99.90
11474;DHT22;5793;52.238;13.438;2023-02-01T04:17:22;4.70;99.90
11474;DHT22;5793;52.238;13.438;2023-02-01T04:19:50;4.80;99.90
11474;DHT22;5793;52.238;13.438;2023-02-01T04:22:20;4.70;99.90
11474;DHT22;5793;52.238;13.438;2023-02-01T04:24:49;4.80;99.90
11474;DHT22;5793;52.238;13.438;2023-02-01T04:27:17;4.90;99.90
11474;DHT22;5793;52.238;13.438;2023-02-01T04:29:45;4.90;99.90
11474;DHT22;5793;52.238;13.438;2023-02-01T04:32:13;5.00;99.90
11474;DHT22;5793;52.238;13.438;2023-02-01T04:34:42;5.00;99.90
11474;DHT22;5793;52.238;13.438;2023-02-01T04:37:10;5.00;99.90
11474;DHT22;5793;52.238;13.438;2023-02-01T04:39:38;4.90;99.90
11474;DHT22;5793;52.238;13.438;2023-02-01T04:42:07;4.90;99.90
11474;DHT22;5793;52.238;13.438;2023-02-01T04:44:35;4.90;99.90
11474;DHT22;5793;52.238;13.438;2023-02-01T04:47:06;4.90;99.90
11474;DHT22;5793;52.238;13.438;2023-02-01T04:49:33;4.90;99.90
11474;DHT22;5793;52.238;13.438;2023-02-01T04:52:01;4.80;99.90
11474;DHT22;5793;52.238;13.438;2023-02-01T04:54:29;4.90;99.90
11474;DHT22;5793;52.238;13.438;2023-02-01T04:56:57;4.80;99.90
11474;DHT22;5793;52.238;13.438;2023-02-01T04:59:27;4.80;99.90
11474;DHT22;5793;52.238;13.438;2023-02-01T05:01:55;4.90;99.90
11474;DHT22;5793;52.238;13.438;2023-02-01T05:04:23;5.00;99.90
11474;DHT22;5793;52.238;13.438;2023-02-01T05:06:51;5.00;99.90
11474;DHT22;5793;52.238;13.438;2023-02-01T05:09:19;4.90;99.90
11474;DHT22;5793;52.238;13.438;2023-02-01T05:11:48;4.90;99.90
11474;DHT22;5793;52.238;13.438;2023-02-01T05:14:35;4.90;99.90
11474;DHT22;5793;52.238;13.438;2023-02-01T05:17:02;4.90;99.90
11474;DHT22;5793;52.238;13.438;2023-02-01T05:19:30;4.90;99.90
11474;DHT22;5793;52.238;13.438;2023-02-01T05:21:58;4.90;99.90
11474;DHT22;5793;52.238;13.438;2023-02-01T05:24:26;4.90;99.90
11474;DHT22;5793;52.238;13.438;2023-02-01T05:26:53;4.80;99.90
11474;DHT22;5793;52.238;13.438;2023-02-01T05:29:21;4.90;99.90
11474;DHT22;5793;52.238;13.438;2023-02-01T05:31:50;4.80;99.90
11474;DHT22;5793;52.238;13.438;2023-02-01T05:34:18;4.80;99.90
11474;DHT22;5793;52.238;13.438;2023-02-01T05:36:46;4.80;99.90
11474;DHT22;5793;52.238;13.438;2023-02-01T05:39:14;4.80;99.90
11474;DHT22;5793;52.238;13.438;2023-02-01T05:41:42;4.90;99.90
11474;DHT22;5793;52.238;13.438;2023-02-01T05:44:10;4.90;99.90
11474;DHT22;5793;52.238;13.438;2023-02-01T05:46:38;4.90;99.90
11474;DHT22;5793;52.238;13.438;2023-02-01T05:49:07;4.80;99.90
11474;DHT22;5793;52.238;13.438;2023-02-01T05:51:35;4.80;99.90
11474;DHT22;5793;52.238;13.438;2023-02-01T05:54:03;4.90;99.90
11474;DHT22;5793;52.238;13.438;2023-02-01T05:56:30;4.90;99.90
11474;DHT22;5793;52.238;13.438;2023-02-01T05:58:58;4.90;99.90
11474;DHT22;5793;52.238;13.438;2023-02-01T06:01:26;4.90;99.90
11474;DHT22;5793;52.238;13.438;2023-02-01T06:03:54;4.90;99.90
11474;DHT22;5793;52.238;13.438;2023-02-01T06:06:23;4.90;99.90
11474;DHT22;5793;52.238;13.438;2023-02-01T06:08:51;4.90;99.90
11474;DHT22;5793;52.238;13.438;2023-02-01T06:11:18;4.90;99.90
11474;DHT22;5793;52.238;13.438;2023-02-01T06:13:58;4.90;99.90
11474;DHT22;5793;52.238;13.438;2023-02-01T06:16:26;4.80;99.90
11474;DHT22;5793;52.238;13.438;2023-02-01T06:18:54;4.80;99.90
11474;DHT22;5793;52.238;13.438;2023-02-01T06:21:23;4.80;99.90
11474;DHT22;5793;52.238;13.438;2023-02-01T06:23:52;4.80;99.90
11474;DHT22;5793;52.238;13.438;2023-02-01T06:26:20;4.80;99.90
11474;DHT22;5793;52.238;13.438;2023-02-01T06:28:48;4.70;99.90
11474;DHT22;5793;52.238;13.438;2023-02-01T06:31:15;4.80;99.90
11474;DHT22;5793;52.238;13.438;2023-02-01T06:33:43;4.80;99.90
11474;DHT22;5793;52.238;13.438;2023-02-01T06:36:12;4.70;99.90
11474;DHT22;5793;52.238;13.438;2023-02-01T06:38:43;4.70;99.90
11474;DHT22;5793;52.238;13.438;2023-02-01T06:41:10;4.70;99.90
11474;DHT22;5793;52.238;13.438;2023-02-01T06:43:38;4.70;99.90
11474;DHT22;5793;52.238;13.438;2023-02-01T06:46:12;4.70;99.90
11474;DHT22;5793;52.238;13.438;2023-02-01T06:48:40;4.70;99.90
11474;DHT22;5793;52.238;13.438;2023-02-01T06:51:19;4.70;99.90
11474;DHT22;5793;52.238;13.438;2023-02-01T06:53:49;4.80;99.90
11474;DHT22;5793;52.238;13.438;2023-02-01T06:56:17;4.80;99.90
11474;DHT22;5793;52.238;13.438;2023-02-01T06:58:47;4.90;99.90
11474;DHT22;5793;52.238;13.438;2023-02-01T07:01:16;4.80;99.90
11474;DHT22;5793;52.238;13.438;2023-02-01T07:03:47;4.90;99.90
11474;DHT22;5793;52.238;13.438;2023-02-01T07:06:15;4.90;99.90
11474;DHT22;5793;52.238;13.438;2023-02-01T07:08:43;4.90;99.90
11474;DHT22;5793;52.238;13.438;2023-02-01T07:11:13;4.90;99.90
11474;DHT22;5793;52.238;13.438;2023-02-01T07:13:42;4.80;99.90
11474;DHT22;5793;52.238;13.438;2023-02-01T07:16:12;4.90;99.90
11474;DHT22;5793;52.238;13.438;2023-02-01T07:18:40;4.90;99.90
11474;DHT22;5793;52.238;13.438;2023-02-01T07:21:07;4.90;99.90
11474;DHT22;5793;52.238;13.438;2023-02-01T07:23:35;5.00;99.90
11474;DHT22;5793;52.238;13.438;2023-02-01T07:26:06;4.90;99.90
11474;DHT22;5793;52.238;13.438;2023-02-01T07:28:35;5.00;99.90
11474;DHT22;5793;52.238;13.438;2023-02-01T07:31:05;4.90;99.90
11474;DHT22;5793;52.238;13.438;2023-02-01T07:33:33;5.00;99.90
11474;DHT22;5793;52.238;13.438;2023-02-01T07:36:02;5.00;99.90
11474;DHT22;5793;52.238;13.438;2023-02-01T07:38:30;5.10;99.90
11474;DHT22;5793;52.238;13.438;2023-02-01T07:40:58;5.10;99.90
11474;DHT22;5793;52.238;13.438;2023-02-01T07:43:27;5.20;99.90
11474;DHT22;5793;52.238;13.438;2023-02-01T07:45:56;5.30;99.90
11474;DHT22;5793;52.238;13.438;2023-02-01T07:48:25;5.30;99.90
11474;DHT22;5793;52.238;13.438;2023-02-01T07:50:57;5.10;99.90
11474;DHT22;5793;52.238;13.438;2023-02-01T07:53:26;5.00;99.90
11474;DHT22;5793;52.238;13.438;2023-02-01T07:55:54;4.90;99.90
11474;DHT22;5793;52.238;13.438;2023-02-01T07:58:22;4.70;99.90
11474;DHT22;5793;52.238;13.438;2023-02-01T08:00:50;4.60;99.90
11474;DHT22;5793;52.238;13.438;2023-02-01T08:03:37;4.50;99.90
11474;DHT22;5793;52.238;13.438;2023-02-01T08:06:05;4.50;99.90
11474;DHT22;5793;52.238;13.438;2023-02-01T08:08:33;4.40;99.90
11474;DHT22;5793;52.238;13.438;2023-02-01T08:11:03;4.40;99.90
11474;DHT22;5793;52.238;13.438;2023-02-01T08:13:32;4.40;99.90
11474;DHT22;5793;52.238;13.438;2023-02-01T08:16:01;4.30;99.90
11474;DHT22;5793;52.238;13.438;2023-02-01T08:18:29;4.30;99.90
11474;DHT22;5793;52.238;13.438;2023-02-01T08:21:02;4.20;99.90
11474;DHT22;5793;52.238;13.438;2023-02-01T08:23:31;4.20;99.90
11474;DHT22;5793;52.238;13.438;2023-02-01T08:26:05;4.20;99.90
11474;DHT22;5793;52.238;13.438;2023-02-01T08:28:33;4.10;99.90
11474;DHT22;5793;52.238;13.438;2023-02-01T08:31:07;4.10;99.90
11474;DHT22;5793;52.238;13.438;2023-02-01T08:33:35;4.10;99.90
11474;DHT22;5793;52.238;13.438;2023-02-01T08:36:07;4.00;99.90
11474;DHT22;5793;52.238;13.438;2023-02-01T08:38:36;4.00;99.90
11474;DHT22;5793;52.238;13.438;2023-02-01T08:41:04;4.10;99.90
11474;DHT22;5793;52.238;13.438;2023-02-01T08:43:33;4.10;99.90
11474;DHT22;5793;52.238;13.438;2023-02-01T08:46:01;4.30;99.90
11474;DHT22;5793;52.238;13.438;2023-02-01T08:48:29;4.20;99.90
11474;DHT22;5793;52.238;13.438;2023-02-01T08:50:56;4.20;99.90
11474;DHT22;5793;52.238;13.438;2023-02-01T08:53:26;4.20;99.90
11474;DHT22;5793;52.238;13.438;2023-02-01T08:55:53;4.20;99.90
11474;DHT22;5793;52.238;13.438;2023-02-01T08:58:21;4.20;99.90
11474;DHT22;5793;52.238;13.438;2023-02-01T09:00:50;4.10;99.90
11474;DHT22;5793;52.238;13.438;2023-02-01T09:03:18;4.10;99.90
11474;DHT22;5793;52.238;13.438;2023-02-01T09:05:46;4.10;99.90
11474;DHT22;5793;52.238;13.438;2023-02-01T09:08:15;4.00;99.90
11474;DHT22;5793;52.238;13.438;2023-02-01T09:10:46;4.10;99.90
11474;DHT22;5793;52.238;13.438;2023-02-01T09:13:14;4.10;99.90
11474;DHT22;5793;52.238;13.438;2023-02-01T09:15:42;4.10;99.90
11474;DHT22;5793;52.238;13.438;2023-02-01T09:18:10;4.10;99.90
11474;DHT22;5793;52.238;13.438;2023-02-01T09:20:38;4.10;99.90
11474;DHT22;5793;52.238;13.438;2023-02-01T09:23:05;4.10;99.90
11474;DHT22;5793;52.238;13.438;2023-02-01T09:25:34;4.20;99.90
11474;DHT22;5793;52.238;13.438;2023-02-01T09:28:03;4.20;99.90
11474;DHT22;5793;52.238;13.438;2023-02-01T09:30:32;4.20;99.90
11474;DHT22;5793;52.238;13.438;2023-02-01T09:33:00;4.20;99.90
11474;DHT22;5793;52.238;13.438;2023-02-01T09:35:28;4.20;99.90
11474;DHT22;5793;52.238;13.438;2023-02-01T09:37:56;4.20;99.90
11474;DHT22;5793;52.238;13.438;2023-02-01T09:40:24;4.20;99.90
11474;DHT22;5793;52.238;13.438;2023-02-01T09:43:06;4.30;99.90
11474;DHT22;5793;52.238;13.438;2023-02-01T09:45:44;4.30;99.90
11474;DHT22;5793;52.238;13.438;2023-02-01T09:48:18;4.20;99.90
11474;DHT22;5793;52.238;13.438;2023-02-01T09:50:52;4.30;99.90
11474;DHT22;5793;52.238;13.438;2023-02-01T09:53:25;4.30;99.90
11474;DHT22;5793;52.238;13.438;2023-02-01T09:55:57;4.30;99.90
11474;DHT22;5793;52.238;13.438;2023-02-01T09:58:32;4.40;99.90
11474;DHT22;5793;52.238;13.438;2023-02-01T10:01:03;4.40;99.90
11474;DHT22;5793;52.238;13.438;2023-02-01T10:03:32;4.40;99.90
11474;DHT22;5793;52.238;13.438;2023-02-01T10:06:10;4.50;99.90
11474;DHT22;5793;52.238;13.438;2023-02-01T10:12:12;4.70;99.90
11474;DHT22;5793;52.238;13.438;2023-02-01T10:14:55;4.60;99.90
11474;DHT22;5793;52.238;13.438;2023-02-01T10:17:37;4.70;99.90
11474;DHT22;5793;52.238;13.438;2023-02-01T10:20:18;4.70;99.90
11474;DHT22;5793;52.238;13.438;2023-02-01T10:22:55;4.60;99.90
11474;DHT22;5793;52.238;13.438;2023-02-01T10:25:53;4.60;99.90
11474;DHT22;5793;52.238;13.438;2023-02-01T10:28:24;4.80;99.90
11474;DHT22;5793;52.238;13.438;2023-02-01T10:30:56;5.00;99.90
11474;DHT22;5793;52.238;13.438;2023-02-01T10:33:30;5.00;99.90
11474;DHT22;5793;52.238;13.438;2023-02-01T10:36:03;5.00;99.90
11474;DHT22;5793;52.238;13.438;2023-02-01T10:38:33;5.10;99.90
11474;DHT22;5793;52.238;13.438;2023-02-01T10:41:02;5.20;99.90
11474;DHT22;5793;52.238;13.438;2023-02-01T10:43:31;5.30;99.90
11474;DHT22;5793;52.238;13.438;2023-02-01T10:46:01;5.40;99.90
11474;DHT22;5793;52.238;13.438;2023-02-01T10:48:31;5.40;99.90
11474;DHT22;5793;52.238;13.438;2023-02-01T10:51:00;5.50;99.90
11474;DHT22;5793;52.238;13.438;2023-02-01T10:53:33;5.60;99.90
11474;DHT22;5793;52.238;13.438;2023-02-01T10:56:07;5.40;99.90
11474;DHT22;5793;52.238;13.438;2023-02-01T10:58:36;5.40;99.90
11474;DHT22;5793;52.238;13.438;2023-02-01T11:01:16;5.40;99.90
11474;DHT22;5793;52.238;13.438;2023-02-01T11:03:52;5.40;99.90
11474;DHT22;5793;52.238;13.438;2023-02-01T11:06:26;5.40;99.90
11474;DHT22;5793;52.238;13.438;2023-02-01T11:08:55;5.50;99.90
11474;DHT22;5793;52.238;13.438;2023-02-01T11:11:24;5.60;99.90
11474;DHT22;5793;52.238;13.438;2023-02-01T11:13:54;5.60;99.90
11474;DHT22;5793;52.238;13.438;2023-02-01T11:16:30;5.60;99.90
11474;DHT22;5793;52.238;13.438;2023-02-01T11:18:58;5.70;99.90
11474;DHT22;5793;52.238;13.438;2023-02-01T11:21:27;5.80;99.90
11474;DHT22;5793;52.238;13.438;2023-02-01T11:23:55;5.90;99.90
11474;DHT22;5793;52.238;13.438;2023-02-01T11:26:28;6.10;99.90
11474;DHT22;5793;52.238;13.438;2023-02-01T11:28:58;6.30;99.90
11474;DHT22;5793;52.238;13.438;2023-02-01T11:31:30;6.20;99.90
11474;DHT22;5793;52.238;13.438;2023-02-01T11:34:06;6.10;99.90
11474;DHT22;5793;52.238;13.438;2023-02-01T11:36:36;6.00;99.90
11474;DHT22;5793;52.238;13.438;2023-02-01T11:39:14;6.00;99.90
11474;DHT22;5793;52.238;13.438;2023-02-01T11:41:56;5.90;99.90
11474;DHT22;5793;52.238;13.438;2023-02-01T11:44:30;6.20;99.90
11474;DHT22;5793;52.238;13.438;2023-02-01T11:47:21;6.50;99.90
11474;DHT22;5793;52.238;13.438;2023-02-01T11:49:51;6.50;99.90
11474;DHT22;5793;52.238;13.438;2023-02-01T11:52:40;6.40;99.90
11474;DHT22;5793;52.238;13.438;2023-02-01T11:55:20;6.30;99.90
11474;DHT22;5793;52.238;13.438;2023-02-01T11:58:01;6.30;99.90
11474;DHT22;5793;52.238;13.438;2023-02-01T12:00:51;6.40;99.90
11474;DHT22;5793;52.238;13.438;2023-02-01T12:06:41;6.40;99.90
11474;DHT22;5793;52.238;13.438;2023-02-01T12:09:21;6.60;99.90
11474;DHT22;5793;52.238;13.438;2023-02-01T12:11:59;6.50;99.90
11474;DHT22;5793;52.238;13.438;2023-02-01T12:14:41;6.70;99.90
11474;DHT22;5793;52.238;13.438;2023-02-01T12:17:40;7.00;99.90
11474;DHT22;5793;52.238;13.438;2023-02-01T12:20:24;7.20;99.90
11474;DHT22;5793;52.238;13.438;2023-02-01T12:23:09;7.40;99.90
11474;DHT22;5793;52.238;13.438;2023-02-01T12:25:53;7.60;99.90
11474;DHT22;5793;52.238;13.438;2023-02-01T12:28:37;7.80;99.90
11474;DHT22;5793;52.238;13.438;2023-02-01T12:31:39;7.80;99.90
11474;DHT22;5793;52.238;13.438;2023-02-01T12:34:28;7.70;99.90
11474;DHT22;5793;52.238;13.438;2023-02-01T12:37:08;7.40;99.90
11474;DHT22;5793;52.238;13.438;2023-02-01T12:39:47;7.30;99.90
11474;DHT22;5793;52.238;13.438;2023-02-01T12:42:19;7.10;99.90
11474;DHT22;5793;52.238;13.438;2023-02-01T12:44:52;6.90;99.90
11474;DHT22;5793;52.238;13.438;2023-02-01T12:47:29;6.90;99.90
11474;DHT22;5793;52.238;13.438;2023-02-01T12:50:02;6.70;99.90
11474;DHT22;5793;52.238;13.438;2023-02-01T12:52:35;6.70;99.90
11474;DHT22;5793;52.238;13.438;2023-02-01T12:55:14;6.60;99.90
11474;DHT22;5793;52.238;13.438;2023-02-01T12:57:45;6.60;99.90
11474;DHT22;5793;52.238;13.438;2023-02-01T13:00:20;6.70;99.90
11474;DHT22;5793;52.238;13.438;2023-02-01T13:02:55;6.60;99.90
11474;DHT22;5793;52.238;13.438;2023-02-01T13:05:28;6.60;99.90
11474;DHT22;5793;52.238;13.438;2023-02-01T13:08:01;6.70;99.90
11474;DHT22;5793;52.238;13.438;2023-02-01T13:10:34;6.70;99.90
11474;DHT22;5793;52.238;13.438;2023-02-01T13:13:10;6.60;99.90
11474;DHT22;5793;52.238;13.438;2023-02-01T13:15:40;6.50;99.90
11474;DHT22;5793;52.238;13.438;2023-02-01T13:18:14;6.40;99.90
11474;DHT22;5793;52.238;13.438;2023-02-01T13:20:47;6.40;99.90
11474;DHT22;5793;52.238;13.438;2023-02-01T13:23:23;6.40;99.90
11474;DHT22;5793;52.238;13.438;2023-02-01T13:25:54;6.40;99.90
11474;DHT22;5793;52.238;13.438;2023-02-01T13:28:26;6.30;99.90
11474;DHT22;5793;52.238;13.438;2023-02-01T13:31:27;6.30;99.90
11474;DHT22;5793;52.238;13.438;2023-02-01T13:37:18;6.30;99.90
11474;DHT22;5793;52.238;13.438;2023-02-01T13:39:56;6.40;99.90
11474;DHT22;5793;52.238;13.438;2023-02-01T13:42:30;6.50;99.90
11474;DHT22;5793;52.238;13.438;2023-02-01T13:45:00;6.50;99.90
11474;DHT22;5793;52.238;13.438;2023-02-01T13:47:32;6.50;99.90
11474;DHT22;5793;52.238;13.438;2023-02-01T13:50:03;6.50;99.90
11474;DHT22;5793;52.238;13.438;2023-02-01T13:52:39;6.50;99.90
11474;DHT22;5793;52.238;13.438;2023-02-01T13:55:23;6.50;99.90
11474;DHT22;5793;52.238;13.438;2023-02-01T13:58:00;6.50;99.90
11474;DHT22;5793;52.238;13.438;2023-02-01T14:00:30;6.50;99.90
11474;DHT22;5793;52.238;13.438;2023-02-01T14:03:18;6.50;99.90
11474;DHT22;5793;52.238;13.438;2023-02-01T14:06:15;6.50;99.90
11474;DHT22;5793;52.238;13.438;2023-02-01T14:09:13;6.50;99.90
11474;DHT22;5793;52.238;13.438;2023-02-01T14:11:45;6.40;99.90
11474;DHT22;5793;52.238;13.438;2023-02-01T14:14:45;6.40;99.90
11474;DHT22;5793;52.238;13.438;2023-02-01T14:17:34;6.40;99.90
11474;DHT22;5793;52.238;13.438;2023-02-01T14:23:25;6.30;99.90
11474;DHT22;5793;52.238;13.438;2023-02-01T14:26:18;6.30;99.90
11474;DHT22;5793;52.238;13.438;2023-02-01T14:28:53;6.20;99.90
11474;DHT22;5793;52.238;13.438;2023-02-01T14:34:31;6.20;99.90
11474;DHT22;5793;52.238;13.438;2023-02-01T14:37:03;6.20;99.90
11474;DHT22;5793;52.238;13.438;2023-02-01T14:39:35;6.10;99.90
11474;DHT22;5793;52.238;13.438;2023-02-01T14:42:17;6.10;99.90
11474;DHT22;5793;52.238;13.438;2023-02-01T14:44:48;6.10;99.90
11474;DHT22;5793;52.238;13.438;2023-02-01T14:47:29;6.10;99.90
11474;DHT22;5793;52.238;13.438;2023-02-01T14:50:03;6.10;99.90
11474;DHT22;5793;52.238;13.438;2023-02-01T14:52:39;6.10;99.90
11474;DHT22;5793;52.238;13.438;2023-02-01T14:55:13;6.10;99.90
11474;DHT22;5793;52.238;13.438;2023-02-01T14:57:43;6.10;99.90
11474;DHT22;5793;52.238;13.438;2023-02-01T15:00:21;6.20;99.90
11474;DHT22;5793;52.238;13.438;2023-02-01T15:02:53;6.20;99.90
11474;DHT22;5793;52.238;13.438;2023-02-01T15:05:28;6.00;99.90
11474;DHT22;5793;52.238;13.438;2023-02-01T15:08:05;6.00;99.90
11474;DHT22;5793;52.238;13.438;2023-02-01T15:10:42;5.90;99.90
11474;DHT22;5793;52.238;13.438;2023-02-01T15:13:28;5.70;99.90
11474;DHT22;5793;52.238;13.438;2023-02-01T15:16:03;5.40;99.90
11474;DHT22;5793;52.238;13.438;2023-02-01T15:18:34;5.30;99.90
11474;DHT22;5793;52.238;13.438;2023-02-01T15:21:03;5.10;99.90
11474;DHT22;5793;52.238;13.438;2023-02-01T15:24:10;5.00;99.90
11474;DHT22;5793;52.238;13.438;2023-02-01T15:26:38;4.90;99.90
11474;DHT22;5793;52.238;13.438;2023-02-01T15:29:11;4.80;99.90
11474;DHT22;5793;52.238;13.438;2023-02-01T15:31:41;4.70;99.90
11474;DHT22;5793;52.238;13.438;2023-02-01T15:34:11;4.70;99.90
11474;DHT22;5793;52.238;13.438;2023-02-01T15:36:39;4.60;99.90
11474;DHT22;5793;52.238;13.438;2023-02-01T15:39:21;4.60;99.90
11474;DHT22;5793;52.238;13.438;2023-02-01T15:41:55;4.60;99.90
11474;DHT22;5793;52.238;13.438;2023-02-01T15:44:34;4.50;99.90
11474;DHT22;5793;52.238;13.438;2023-02-01T15:47:12;4.50;99.90
11474;DHT22;5793;52.238;13.438;2023-02-01T15:49:44;4.50;99.90
11474;DHT22;5793;52.238;13.438;2023-02-01T15:52:21;4.50;99.90
11474;DHT22;5793;52.238;13.438;2023-02-01T15:54:52;4.50;99.90
11474;DHT22;5793;52.238;13.438;2023-02-01T15:57:23;4.50;99.90
11474;DHT22;5793;52.238;13.438;2023-02-01T15:59:58;4.40;99.90
11474;DHT22;5793;52.238;13.438;2023-02-01T16:02:33;4.40;99.90
11474;DHT22;5793;52.238;13.438;2023-02-01T16:05:04;4.50;99.90
11474;DHT22;5793;52.238;13.438;2023-02-01T16:07:33;4.40;99.90
11474;DHT22;5793;52.238;13.438;2023-02-01T16:10:13;4.50;99.90
11474;DHT22;5793;52.238;13.438;2023-02-01T16:12:47;4.40;99.90
11474;DHT22;5793;52.238;13.438;2023-02-01T16:15:15;4.50;99.90
11474;DHT22;5793;52.238;13.438;2023-02-01T16:17:43;4.50;99.90
11474;DHT22;5793;52.238;13.438;2023-02-01T16:20:13;4.50;99.90
11474;DHT22;5793;52.238;13.438;2023-02-01T16:22:41;4.50;99.90
11474;DHT22;5793;52.238;13.438;2023-02-01T16:25:09;4.50;99.90
11474;DHT22;5793;52.238;13.438;2023-02-01T16:27:37;4.50;99.90
11474;DHT22;5793;52.238;13.438;2023-02-01T16:30:06;4.50;99.90
11474;DHT22;5793;52.238;13.438;2023-02-01T16:32:37;4.50;99.90
11474;DHT22;5793;52.238;13.438;2023-02-01T16:35:13;4.50;99.90